createdAt,value
2023-01-12T00:01:25.220Z,1024.0
2023-01-12T00:16:26.227Z,1024.0
2023-01-12T00:31:25.524Z,1024.0
2023-01-12T00:46:24.567Z,1024.0
2023-01-12T01:01:25.484Z,1024.0
2023-01-12T01:16:25.531Z,1024.0
2023-01-12T01:31:25.226Z,1023.5
2023-01-12T01:46:25.374Z,1024.0
2023-01-12T02:01:25.426Z,1024.0
2023-01-12T02:16:26.249Z,1023.7
2023-01-12T02:31:25.604Z,1023.0
2023-01-12T02:46:34.684Z,1023.0
2023-01-12T03:01:34.657Z,1023.0
2023-01-12T03:16:25.071Z,1023.0
2023-01-12T03:31:25.084Z,1023.0
2023-01-12T03:46:24.885Z,1023.0
2023-01-12T04:01:24.733Z,1023.0
2023-01-12T04:16:25.282Z,1022.0
2023-01-12T04:31:24.909Z,1022.7
2023-01-12T04:46:25.013Z,1022.0
2023-01-12T05:01:25.203Z,1022.0
2023-01-12T05:16:25.143Z,1022.0
2023-01-12T05:31:25.076Z,1022.0
2023-01-12T05:46:26.102Z,1022.0
2023-01-12T06:01:25.053Z,1022.0
2023-01-12T06:16:25.413Z,1022.0
2023-01-12T06:31:25.180Z,1022.0
2023-01-12T06:46:25.308Z,1022.0
2023-01-12T07:01:25.422Z,1022.0
2023-01-12T07:16:25.574Z,1022.0
2023-01-12T07:30:27.756Z,1022.0
2023-01-12T07:45:33.776Z,1021.3
2023-01-12T08:00:38.301Z,1021.0
2023-01-12T08:15:23.749Z,1022.0
2023-01-12T08:32:02.671Z,1021.7
2023-01-12T08:45:24.004Z,1022.0
2023-01-12T09:00:26.434Z,1022.0
2023-01-12T09:15:29.475Z,1022.0
2023-01-12T09:45:25.654Z,1022.0
2023-01-12T10:00:32.559Z,1022.0
2023-01-12T10:30:24.256Z,1021.7
2023-01-12T10:45:23.868Z,1021.0
2023-01-12T11:00:26.044Z,1021.0
2023-01-12T11:15:24.136Z,1021.0
2023-01-12T11:30:24.545Z,1021.0
2023-01-12T11:45:24.350Z,1021.0
2023-01-12T12:00:36.134Z,1021.0
2023-01-12T12:15:24.320Z,1020.3
2023-01-12T12:30:24.584Z,1020.0
2023-01-12T12:45:33.831Z,1020.0
2023-01-12T13:00:34.758Z,1020.0
2023-01-12T13:15:23.892Z,1020.0
2023-01-12T13:30:23.599Z,1020.0
2023-01-12T13:45:23.680Z,1020.0
2023-01-12T14:00:33.481Z,1020.0
2023-01-12T15:00:33.006Z,1020.0
2023-01-12T15:31:40.291Z,1020.0
2023-01-12T15:46:25.403Z,1020.0
2023-01-12T16:01:25.023Z,1020.0
2023-01-12T16:16:24.800Z,1020.0
2023-01-12T16:31:25.087Z,1019.0
2023-01-12T16:46:24.925Z,1019.7
2023-01-12T17:01:25.325Z,1019.0
2023-01-12T17:16:25.173Z,1019.0
2023-01-12T17:31:25.327Z,1019.0
2023-01-12T17:46:34.317Z,1019.0
2023-01-12T18:01:34.312Z,1019.0
2023-01-12T18:16:24.247Z,1019.0
2023-01-12T18:31:24.539Z,1019.0
2023-01-12T18:49:11.125Z,1019.0
2023-01-12T19:01:35.395Z,1019.0
2023-01-12T19:16:25.546Z,1018.3
2023-01-12T19:31:34.274Z,1018.5
2023-01-12T19:46:34.205Z,1018.0
2023-01-12T20:01:34.695Z,1018.0
2023-01-12T20:16:24.572Z,1019.0
2023-01-12T20:31:24.649Z,1018.0
2023-01-12T20:46:24.653Z,1018.0
2023-01-12T21:01:25.023Z,1018.0
2023-01-12T21:16:24.946Z,1018.0
2023-01-12T21:31:24.867Z,1018.0
2023-01-12T21:46:24.717Z,1018.0
2023-01-12T22:01:25.002Z,1018.0
2023-01-12T22:16:25.567Z,1017.7
2023-01-12T22:31:24.994Z,1017.7
2023-01-12T22:46:25.028Z,1017.7
2023-01-12T23:16:24.779Z,1017.0
2023-01-12T23:31:24.994Z,1017.0
2023-01-12T23:46:25.657Z,1017.0
